createdAt,value
2022-08-07T00:02:35.418Z,18.74
2022-08-07T00:04:06.225Z,18.76
2022-08-07T00:06:36.053Z,18.70
2022-08-07T00:09:16.101Z,18.73
2022-08-07T00:11:53.882Z,18.68
2022-08-07T00:14:25.506Z,18.63
2022-08-07T00:16:57.517Z,18.49
2022-08-07T00:19:26.191Z,18.49
2022-08-07T00:22:10.767Z,18.58
2022-08-07T00:24:38.649Z,18.45
2022-08-07T00:27:07.257Z,18.35
2022-08-07T00:29:37.058Z,18.43
2022-08-07T00:32:05.913Z,18.38
2022-08-07T00:34:35.648Z,18.34
2022-08-07T00:37:05.078Z,18.35
2022-08-07T00:39:34.009Z,18.29
2022-08-07T00:42:02.350Z,18.21
2022-08-07T00:44:33.538Z,18.19
2022-08-07T00:47:06.571Z,18.23
2022-08-07T00:50:19.509Z,18.10
2022-08-07T00:52:29.444Z,18.09
2022-08-07T00:55:00.016Z,18.14
2022-08-07T00:57:34.103Z,18.05
2022-08-07T01:00:01.098Z,18.07
2022-08-07T01:02:29.753Z,17.99
2022-08-07T01:04:58.567Z,18.04
2022-08-07T01:07:28.587Z,18.09
2022-08-07T01:10:07.011Z,18.07
2022-08-07T01:12:53.349Z,18.10
2022-08-07T01:15:35.752Z,18.08
2022-08-07T01:18:16.915Z,18.07
2022-08-07T01:20:59.617Z,17.83
2022-08-07T01:23:38.559Z,17.69
2022-08-07T01:26:12.079Z,17.55
2022-08-07T01:28:49.830Z,17.60
2022-08-07T01:31:27.840Z,17.69
2022-08-07T01:34:09.000Z,17.80
2022-08-07T01:36:40.858Z,17.88
2022-08-07T01:39:13.989Z,17.88
2022-08-07T01:42:07.735Z,17.89
2022-08-07T01:44:34.877Z,17.79
2022-08-07T01:48:16.399Z,17.76
2022-08-07T01:49:53.656Z,17.68
2022-08-07T01:52:26.641Z,17.51
2022-08-07T01:54:56.244Z,17.58
2022-08-07T01:58:06.820Z,17.45
2022-08-07T02:00:28.893Z,17.44
2022-08-07T02:03:12.247Z,17.36
2022-08-07T02:06:02.310Z,17.33
2022-08-07T02:08:41.024Z,17.30
2022-08-07T02:11:10.502Z,17.23
2022-08-07T02:14:02.350Z,17.13
2022-08-07T02:16:33.708Z,17.07
2022-08-07T02:20:05.206Z,16.99
2022-08-07T02:22:01.709Z,17.05
2022-08-07T02:24:30.304Z,17.08
2022-08-07T02:27:01.269Z,17.06
2022-08-07T02:29:30.573Z,17.08
2022-08-07T02:32:00.898Z,17.09
2022-08-07T02:34:29.236Z,17.10
2022-08-07T02:37:00.278Z,17.17
2022-08-07T02:40:01.597Z,17.23
2022-08-07T02:42:19.706Z,17.22
2022-08-07T02:44:50.162Z,17.26
2022-08-07T02:47:23.716Z,17.23
2022-08-07T02:49:59.655Z,17.22
2022-08-07T02:53:03.724Z,17.19
2022-08-07T02:56:02.202Z,17.26
2022-08-07T02:58:27.171Z,17.28
2022-08-07T03:00:57.983Z,17.35
2022-08-07T03:03:42.107Z,17.41
2022-08-07T03:06:26.300Z,17.35
2022-08-07T03:09:05.932Z,17.31
2022-08-07T03:11:38.703Z,17.38
2022-08-07T03:14:07.605Z,17.34
2022-08-07T03:16:35.650Z,17.34
2022-08-07T03:19:03.523Z,17.42
2022-08-07T03:21:32.817Z,17.40
2022-08-07T03:24:19.720Z,17.40
2022-08-07T03:26:57.868Z,17.49
2022-08-07T03:29:34.023Z,17.50
2022-08-07T03:32:08.443Z,17.48
2022-08-07T03:34:47.318Z,17.50
2022-08-07T03:37:32.676Z,17.54
2022-08-07T03:40:15.731Z,17.52
2022-08-07T03:42:44.431Z,17.44
2022-08-07T03:45:30.310Z,17.44
2022-08-07T03:48:04.365Z,17.35
2022-08-07T03:50:37.520Z,17.38
2022-08-07T03:53:05.284Z,17.36
2022-08-07T03:55:57.321Z,17.27
2022-08-07T03:59:06.825Z,17.28
2022-08-07T04:01:11.468Z,17.34
2022-08-07T04:03:53.690Z,17.26
2022-08-07T04:06:38.400Z,17.19
2022-08-07T04:09:15.382Z,17.02
2022-08-07T04:12:21.519Z,16.75
2022-08-07T04:14:37.322Z,16.78
2022-08-07T04:17:20.518Z,16.80
2022-08-07T04:19:54.141Z,16.83
2022-08-07T04:22:27.464Z,16.84
2022-08-07T04:24:58.643Z,16.83
2022-08-07T04:27:27.633Z,16.82
2022-08-07T04:30:02.361Z,16.90
2022-08-07T04:32:58.650Z,16.97
2022-08-07T04:35:35.335Z,16.87
2022-08-07T04:38:11.556Z,16.94
2022-08-07T04:40:52.203Z,16.93
2022-08-07T04:44:12.364Z,16.88
2022-08-07T04:47:03.974Z,17.02
2022-08-07T04:50:04.058Z,17.05
2022-08-07T04:52:51.189Z,17.07
2022-08-07T04:58:13.157Z,17.06
2022-08-07T04:59:01.582Z,17.15
2022-08-07T05:02:05.474Z,17.13
2022-08-07T05:05:11.847Z,17.06
2022-08-07T05:08:00.457Z,17.09
2022-08-07T05:10:30.865Z,17.09
2022-08-07T05:13:10.099Z,17.08
2022-08-07T05:15:57.957Z,17.06
2022-08-07T05:18:30.763Z,17.11
2022-08-07T05:21:05.854Z,17.14
2022-08-07T05:23:45.714Z,17.18
2022-08-07T05:26:24.107Z,17.22
2022-08-07T05:28:57.837Z,17.24
2022-08-07T05:31:35.277Z,17.18
2022-08-07T05:34:11.267Z,17.19
2022-08-07T05:36:44.017Z,17.32
2022-08-07T05:40:05.842Z,17.53
2022-08-07T05:42:33.244Z,17.46
2022-08-07T05:45:14.149Z,17.58
2022-08-07T05:48:02.585Z,17.93
2022-08-07T05:50:43.321Z,18.30
2022-08-07T05:54:12.678Z,18.49
2022-08-07T05:56:03.478Z,18.74
2022-08-07T05:58:37.675Z,18.78
2022-08-07T06:01:11.011Z,18.89
2022-08-07T06:03:56.715Z,18.99
2022-08-07T06:06:29.766Z,19.06
2022-08-07T06:09:04.373Z,19.10
2022-08-07T06:11:32.648Z,19.15
2022-08-07T06:14:12.652Z,19.07
2022-08-07T06:16:50.207Z,19.25
2022-08-07T06:19:58.016Z,19.27
2022-08-07T06:22:23.551Z,19.33
2022-08-07T06:25:02.939Z,19.33
2022-08-07T06:27:54.408Z,19.32
2022-08-07T06:30:32.119Z,19.55
2022-08-07T06:33:10.046Z,19.62
2022-08-07T06:35:47.690Z,19.58
2022-08-07T06:38:31.028Z,19.51
2022-08-07T06:41:00.447Z,19.53
2022-08-07T06:43:39.793Z,19.61
2022-08-07T06:46:15.397Z,19.82
2022-08-07T06:48:57.965Z,19.89
2022-08-07T06:51:33.279Z,19.76
2022-08-07T06:55:27.735Z,19.94
2022-08-07T06:56:54.547Z,20.08
2022-08-07T07:00:14.048Z,20.23
2022-08-07T07:02:49.280Z,20.30
2022-08-07T07:05:12.581Z,20.42
2022-08-07T07:07:59.963Z,20.48
2022-08-07T07:10:31.355Z,20.63
2022-08-07T07:13:04.108Z,20.71
2022-08-07T07:15:37.737Z,20.75
2022-08-07T07:18:09.864Z,20.44
2022-08-07T07:20:46.345Z,20.75
2022-08-07T07:24:10.936Z,20.56
2022-08-07T07:26:35.842Z,20.13
2022-08-07T07:29:57.100Z,20.21
2022-08-07T07:31:48.318Z,20.40
2022-08-07T07:34:21.266Z,20.55
2022-08-07T07:36:52.738Z,20.74
2022-08-07T07:39:25.493Z,21.01
2022-08-07T07:42:08.847Z,21.28
2022-08-07T07:44:44.583Z,21.65
2022-08-07T07:47:22.868Z,21.39
2022-08-07T07:50:33.336Z,21.58
2022-08-07T07:52:41.280Z,21.67
2022-08-07T07:55:10.946Z,21.86
2022-08-07T07:57:53.354Z,22.07
2022-08-07T08:00:29.667Z,22.10
2022-08-07T08:03:09.314Z,21.58
2022-08-07T08:05:55.053Z,21.24
2022-08-07T08:08:35.314Z,21.47
2022-08-07T08:11:06.008Z,21.36
2022-08-07T08:13:53.742Z,21.34
2022-08-07T08:16:29.885Z,21.41
2022-08-07T08:19:00.466Z,21.41
2022-08-07T08:22:03.402Z,21.45
2022-08-07T08:24:57.144Z,21.50
2022-08-07T08:27:41.481Z,21.52
2022-08-07T08:30:24.386Z,21.68
2022-08-07T08:32:54.252Z,21.72
2022-08-07T08:35:25.478Z,21.73
2022-08-07T08:38:03.610Z,21.75
2022-08-07T08:40:40.447Z,21.80
2022-08-07T08:43:17.788Z,21.93
2022-08-07T08:45:59.129Z,22.06
2022-08-07T08:48:38.389Z,22.04
2022-08-07T08:52:01.141Z,22.23
2022-08-07T08:54:38.415Z,22.45
2022-08-07T08:57:11.387Z,22.57
2022-08-07T09:00:09.524Z,22.74
2022-08-07T09:02:38.914Z,22.69
2022-08-07T09:05:37.610Z,22.76
2022-08-07T09:08:39.266Z,22.70
2022-08-07T09:11:24.159Z,22.76
2022-08-07T09:14:11.016Z,22.83
2022-08-07T09:16:47.659Z,22.67
2022-08-07T09:19:51.378Z,22.71
2022-08-07T09:24:53.771Z,22.86
2022-08-07T09:25:53.439Z,22.85
2022-08-07T09:30:00.764Z,22.96
2022-08-07T09:31:49.228Z,23.03
2022-08-07T09:34:37.633Z,23.10
2022-08-07T09:37:48.434Z,23.36
2022-08-07T09:40:30.159Z,23.53
2022-08-07T09:43:40.129Z,23.84
2022-08-07T09:47:52.426Z,24.44
2022-08-07T09:49:59.444Z,24.85
2022-08-07T09:52:34.302Z,24.49
2022-08-07T09:55:29.016Z,24.04
2022-08-07T09:58:34.433Z,24.51
2022-08-07T10:01:51.439Z,24.65
2022-08-07T10:04:39.469Z,24.73
2022-08-07T10:07:26.090Z,24.79
2022-08-07T10:10:02.855Z,24.87
2022-08-07T10:13:55.250Z,24.55
2022-08-07T10:16:22.967Z,24.75
2022-08-07T10:19:11.077Z,25.06
2022-08-07T10:22:14.587Z,24.98
2022-08-07T10:25:03.188Z,24.69
2022-08-07T10:27:58.816Z,24.64
2022-08-07T10:30:56.298Z,24.53
2022-08-07T10:34:05.625Z,24.37
2022-08-07T10:37:12.726Z,24.68
2022-08-07T10:40:21.703Z,25.02
2022-08-07T10:43:15.325Z,24.72
2022-08-07T10:45:58.211Z,24.64
2022-08-07T10:48:55.259Z,24.54
2022-08-07T10:52:01.605Z,24.76
2022-08-07T10:55:00.786Z,24.46
2022-08-07T10:57:46.170Z,24.36
2022-08-07T11:00:36.157Z,24.88
2022-08-07T11:03:12.810Z,25.08
2022-08-07T11:05:49.033Z,25.01
2022-08-07T11:08:42.609Z,25.26
2022-08-07T11:11:14.003Z,25.01
2022-08-07T11:14:43.662Z,25.00
2022-08-07T11:16:52.840Z,25.00
2022-08-07T11:19:37.093Z,24.82
2022-08-07T11:22:37.034Z,24.78
2022-08-07T11:25:49.759Z,24.91
2022-08-07T11:28:34.086Z,25.43
2022-08-07T11:31:33.228Z,25.38
2022-08-07T11:34:16.534Z,25.29
2022-08-07T11:37:02.727Z,25.20
2022-08-07T11:40:00.302Z,25.11
2022-08-07T11:42:52.791Z,25.06
2022-08-07T11:45:38.160Z,25.15
2022-08-07T11:49:28.686Z,25.06
2022-08-07T11:51:46.818Z,24.90
2022-08-07T11:54:54.865Z,24.85
2022-08-07T11:57:57.710Z,24.87
2022-08-07T12:00:29.321Z,24.80
2022-08-07T12:03:41.942Z,24.79
2022-08-07T12:06:39.070Z,24.83
2022-08-07T12:09:22.995Z,25.00
2022-08-07T12:12:12.305Z,25.68
2022-08-07T12:14:56.313Z,25.35
2022-08-07T12:17:59.447Z,25.16
2022-08-07T12:20:45.734Z,24.98
2022-08-07T12:24:05.444Z,25.26
2022-08-07T12:26:49.409Z,25.32
2022-08-07T12:29:38.103Z,25.84
2022-08-07T12:32:15.597Z,25.72
2022-08-07T12:34:49.345Z,25.71
2022-08-07T12:37:27.996Z,25.92
2022-08-07T12:40:24.174Z,25.99
2022-08-07T12:43:01.618Z,25.86
2022-08-07T12:45:53.150Z,25.91
2022-08-07T12:48:52.860Z,25.88
2022-08-07T12:51:46.592Z,25.76
2022-08-07T12:54:38.281Z,25.85
2022-08-07T12:57:09.521Z,25.82
2022-08-07T12:59:54.676Z,25.74
2022-08-07T13:03:06.976Z,25.81
2022-08-07T13:06:21.987Z,25.87
2022-08-07T13:09:12.715Z,26.05
2022-08-07T13:12:21.878Z,26.48
2022-08-07T13:15:14.307Z,26.17
2022-08-07T13:17:59.586Z,25.80
2022-08-07T13:20:39.114Z,25.94
2022-08-07T13:24:01.872Z,25.89
2022-08-07T13:26:15.998Z,25.62
2022-08-07T13:29:08.888Z,25.60
2022-08-07T13:31:55.030Z,25.62
2022-08-07T13:34:44.797Z,25.26
2022-08-07T13:37:27.430Z,25.17
2022-08-07T13:40:36.239Z,25.27
2022-08-07T13:43:13.526Z,25.46
2022-08-07T13:46:10.905Z,25.47
2022-08-07T13:48:35.019Z,25.55
2022-08-07T13:51:27.413Z,25.76
2022-08-07T13:54:02.105Z,25.89
2022-08-07T13:56:35.582Z,25.71
2022-08-07T13:59:25.703Z,25.88
2022-08-07T14:02:29.790Z,25.94
2022-08-07T14:05:09.235Z,26.32
2022-08-07T14:07:59.672Z,26.51
2022-08-07T14:10:42.079Z,26.25
2022-08-07T14:13:16.236Z,26.29
2022-08-07T14:15:44.439Z,26.21
2022-08-07T14:18:29.252Z,26.20
2022-08-07T14:21:08.290Z,26.14
2022-08-07T14:23:58.991Z,26.11
2022-08-07T14:26:32.409Z,26.15
2022-08-07T14:29:08.615Z,26.06
2022-08-07T14:31:57.786Z,26.09
2022-08-07T14:34:30.362Z,26.16
2022-08-07T14:37:01.727Z,26.18
2022-08-07T14:40:15.759Z,26.38
2022-08-07T14:42:24.893Z,26.38
2022-08-07T14:44:59.895Z,26.26
2022-08-07T14:47:44.927Z,26.03
2022-08-07T14:50:19.111Z,26.25
2022-08-07T14:52:47.854Z,26.28
2022-08-07T14:55:18.036Z,26.47
2022-08-07T14:57:58.326Z,26.53
2022-08-07T15:00:39.392Z,26.53
2022-08-07T15:03:16.530Z,26.35
2022-08-07T15:05:54.230Z,26.23
2022-08-07T15:08:32.407Z,26.14
2022-08-07T15:11:06.208Z,26.02
2022-08-07T15:13:37.820Z,26.00
2022-08-07T15:19:00.716Z,26.04
2022-08-07T15:21:44.041Z,25.85
2022-08-07T15:25:14.673Z,26.07
2022-08-07T15:27:07.020Z,26.22
2022-08-07T15:30:09.322Z,26.15
2022-08-07T15:36:01.782Z,25.96
2022-08-07T15:38:31.170Z,25.94
2022-08-07T15:41:23.568Z,25.89
2022-08-07T15:44:01.246Z,26.12
2022-08-07T15:46:32.284Z,26.46
2022-08-07T15:49:12.724Z,26.46
2022-08-07T15:54:34.625Z,26.04
2022-08-07T15:57:39.689Z,26.09
2022-08-07T16:00:04.429Z,25.88
2022-08-07T16:02:41.430Z,26.05
2022-08-07T16:05:20.048Z,25.85
2022-08-07T16:08:31.068Z,25.80
2022-08-07T16:10:48.787Z,25.85
2022-08-07T16:13:58.064Z,25.95
2022-08-07T16:16:48.222Z,25.94
2022-08-07T16:19:58.680Z,25.84
2022-08-07T16:22:33.715Z,25.84
2022-08-07T16:25:22.991Z,25.82
2022-08-07T16:30:08.899Z,25.90
2022-08-07T16:31:50.174Z,25.90
2022-08-07T16:34:27.526Z,25.86
2022-08-07T16:38:03.681Z,25.84
2022-08-07T16:40:36.308Z,25.81
2022-08-07T16:44:05.843Z,25.87
2022-08-07T16:47:16.044Z,25.86
2022-08-07T16:50:38.764Z,25.79
2022-08-07T16:54:01.603Z,25.73
2022-08-07T16:56:37.430Z,25.68
2022-08-07T16:59:24.519Z,25.65
2022-08-07T17:02:13.733Z,25.62
2022-08-07T17:06:18.944Z,25.68
2022-08-07T17:08:05.785Z,25.62
2022-08-07T17:10:39.208Z,25.61
2022-08-07T17:13:24.911Z,25.66
2022-08-07T17:16:33.741Z,25.62
2022-08-07T17:19:15.734Z,25.62
2022-08-07T17:21:55.449Z,25.41
2022-08-07T17:24:43.016Z,25.56
2022-08-07T17:27:35.767Z,25.51
2022-08-07T17:30:15.733Z,25.54
2022-08-07T17:34:09.586Z,25.48
2022-08-07T17:35:55.908Z,25.37
2022-08-07T17:38:35.207Z,25.34
2022-08-07T17:42:03.051Z,25.27
2022-08-07T17:44:45.595Z,25.18
2022-08-07T17:47:42.273Z,25.15
2022-08-07T17:50:23.357Z,25.07
2022-08-07T17:53:05.894Z,25.00
2022-08-07T17:56:00.566Z,24.95
2022-08-07T17:58:50.068Z,24.83
2022-08-07T18:01:26.672Z,24.81
2022-08-07T18:04:16.313Z,24.77
2022-08-07T18:07:19.155Z,24.73
2022-08-07T18:10:06.862Z,24.66
2022-08-07T18:12:39.967Z,24.67
2022-08-07T18:15:42.804Z,24.63
2022-08-07T18:19:02.717Z,24.48
2022-08-07T18:21:38.297Z,24.46
2022-08-07T18:24:11.936Z,24.33
2022-08-07T18:27:38.785Z,24.28
2022-08-07T18:30:31.124Z,24.27
2022-08-07T18:33:27.276Z,24.35
2022-08-07T18:36:14.187Z,24.20
2022-08-07T18:40:04.921Z,24.15
2022-08-07T18:42:03.971Z,24.09
2022-08-07T18:45:43.518Z,24.00
2022-08-07T18:49:03.739Z,24.07
2022-08-07T18:52:33.854Z,24.10
2022-08-07T18:54:30.604Z,24.16
2022-08-07T18:57:29.413Z,24.22
2022-08-07T19:00:33.401Z,24.12
2022-08-07T19:03:11.876Z,24.06
2022-08-07T19:06:04.162Z,24.07
2022-08-07T19:08:58.468Z,23.97
2022-08-07T19:11:37.601Z,24.00
2022-08-07T19:14:08.051Z,23.94
2022-08-07T19:17:09.385Z,23.90
2022-08-07T19:19:45.310Z,23.87
2022-08-07T19:22:44.864Z,23.85
2022-08-07T19:26:23.664Z,23.56
2022-08-07T19:28:58.223Z,23.68
2022-08-07T19:31:41.947Z,23.74
2022-08-07T19:33:57.907Z,23.59
2022-08-07T19:36:27.679Z,23.64
2022-08-07T19:38:58.978Z,23.59
2022-08-07T19:41:44.568Z,23.60
2022-08-07T19:44:21.363Z,23.59
2022-08-07T19:46:57.526Z,23.44
2022-08-07T19:49:57.934Z,23.54
2022-08-07T19:52:18.562Z,23.52
2022-08-07T19:54:55.692Z,23.47
2022-08-07T19:57:59.984Z,23.46
2022-08-07T20:00:34.632Z,23.53
2022-08-07T20:03:05.945Z,23.57
2022-08-07T20:06:01.189Z,23.50
2022-08-07T20:08:32.918Z,23.39
2022-08-07T20:11:09.882Z,23.43
2022-08-07T20:14:07.316Z,23.51
2022-08-07T20:16:48.135Z,23.57
2022-08-07T20:19:25.052Z,23.55
2022-08-07T20:21:56.952Z,23.52
2022-08-07T20:24:32.313Z,23.57
2022-08-07T20:27:02.316Z,23.56
2022-08-07T20:29:48.855Z,23.46
2022-08-07T20:32:42.989Z,23.42
2022-08-07T20:35:22.025Z,23.38
2022-08-07T20:37:55.599Z,23.34
2022-08-07T20:40:33.172Z,23.34
2022-08-07T20:43:03.090Z,23.28
2022-08-07T20:46:29.060Z,23.29
2022-08-07T20:48:28.887Z,23.28
2022-08-07T20:50:59.924Z,23.20
2022-08-07T20:54:02.858Z,23.09
2022-08-07T20:56:16.525Z,23.07
2022-08-07T20:58:50.331Z,23.08
2022-08-07T21:01:21.150Z,23.04
2022-08-07T21:04:18.579Z,22.93
2022-08-07T21:06:46.610Z,22.88
2022-08-07T21:09:24.408Z,22.83
2022-08-07T21:11:57.005Z,22.81
2022-08-07T21:14:34.040Z,22.81
2022-08-07T21:18:00.575Z,22.68
2022-08-07T21:20:04.724Z,22.67
2022-08-07T21:22:53.507Z,22.60
2022-08-07T21:25:38.683Z,22.58
2022-08-07T21:28:18.861Z,22.51
2022-08-07T21:31:00.722Z,22.60
2022-08-07T21:33:44.868Z,22.46
2022-08-07T21:36:31.198Z,22.43
2022-08-07T21:39:45.270Z,22.44
2022-08-07T21:46:05.142Z,22.21
2022-08-07T21:48:29.012Z,22.11
2022-08-07T21:51:25.447Z,22.07
2022-08-07T21:54:14.181Z,22.01
2022-08-07T21:56:51.956Z,21.94
2022-08-07T22:00:04.444Z,21.82
2022-08-07T22:02:46.928Z,21.72
2022-08-07T22:05:43.853Z,21.64
2022-08-07T22:08:10.563Z,21.65
2022-08-07T22:10:38.397Z,21.67
2022-08-07T22:13:14.236Z,21.60
2022-08-07T22:16:45.110Z,21.53
2022-08-07T22:18:43.059Z,21.51
2022-08-07T22:21:15.483Z,21.49
2022-08-07T22:23:57.170Z,21.37
2022-08-07T22:26:37.282Z,21.34
2022-08-07T22:29:23.630Z,21.22
2022-08-07T22:32:20.506Z,21.17
2022-08-07T22:34:54.964Z,21.10
2022-08-07T22:38:01.710Z,21.07
2022-08-07T22:40:38.541Z,21.13
2022-08-07T22:43:14.306Z,21.14
2022-08-07T22:46:21.140Z,20.99
2022-08-07T22:49:18.805Z,21.02
2022-08-07T22:51:54.820Z,20.82
2022-08-07T22:54:49.261Z,20.77
2022-08-07T22:57:26.014Z,20.73
2022-08-07T23:00:12.314Z,20.75
2022-08-07T23:02:48.246Z,20.79
2022-08-07T23:06:10.128Z,20.66
2022-08-07T23:08:46.818Z,20.72
2022-08-07T23:11:25.112Z,20.73
2022-08-07T23:14:17.517Z,20.65
2022-08-07T23:17:02.572Z,20.56
2022-08-07T23:20:03.408Z,20.53
2022-08-07T23:22:30.990Z,20.48
2022-08-07T23:25:28.203Z,20.50
2022-08-07T23:28:22.745Z,20.36
2022-08-07T23:32:49.463Z,20.34
2022-08-07T23:34:39.739Z,20.31
2022-08-07T23:37:19.142Z,20.28
2022-08-07T23:40:07.407Z,20.20
2022-08-07T23:43:16.889Z,20.21
2022-08-07T23:46:23.780Z,20.12
2022-08-07T23:49:15.360Z,20.07
2022-08-07T23:53:00.112Z,20.01
2022-08-07T23:54:52.157Z,19.98
2022-08-07T23:57:22.399Z,20.00
